createdAt,value
2018-03-23T00:01:54.984Z,24.58
2018-03-23T00:04:22.545Z,22.23
2018-03-23T00:06:50.012Z,24.70
2018-03-23T00:09:17.570Z,25.65
2018-03-23T00:11:45.028Z,25.77
2018-03-23T00:14:12.509Z,19.40
2018-03-23T00:16:40.033Z,27.85
2018-03-23T00:19:07.527Z,21.48
2018-03-23T00:21:34.988Z,20.55
2018-03-23T00:24:02.509Z,20.62
2018-03-23T00:26:29.984Z,23.08
2018-03-23T00:28:58.225Z,22.85
2018-03-23T00:31:25.692Z,23.27
2018-03-23T00:33:53.161Z,18.12
2018-03-23T00:36:21.425Z,17.95
2018-03-23T00:38:48.919Z,19.30
2018-03-23T00:41:16.381Z,24.17
2018-03-23T00:43:43.848Z,18.25
2018-03-23T00:46:11.320Z,20.35
2018-03-23T00:48:38.778Z,20.70
2018-03-23T00:51:06.275Z,20.10
2018-03-23T00:53:33.740Z,19.60
2018-03-23T00:56:01.996Z,25.95
2018-03-23T00:58:29.609Z,21.70
2018-03-23T01:00:57.122Z,18.17
2018-03-23T01:03:25.375Z,23.42
2018-03-23T01:05:52.850Z,22.55
2018-03-23T01:08:20.312Z,20.52
2018-03-23T01:10:48.572Z,17.17
2018-03-23T01:13:16.029Z,21.92
2018-03-23T01:15:43.515Z,20.50
2018-03-23T01:18:11.755Z,17.65
2018-03-23T01:20:39.234Z,17.48
2018-03-23T01:23:07.500Z,16.62
2018-03-23T01:25:35.751Z,19.58
2018-03-23T01:28:03.340Z,22.00
2018-03-23T01:30:30.900Z,26.73
2018-03-23T01:32:58.384Z,19.30
2018-03-23T01:35:26.624Z,23.33
2018-03-23T01:37:54.192Z,26.17
2018-03-23T01:40:21.723Z,22.00
2018-03-23T01:42:49.202Z,21.37
2018-03-23T01:45:16.683Z,23.45
2018-03-23T01:47:44.917Z,25.62
2018-03-23T01:50:12.502Z,21.35
2018-03-23T01:52:40.765Z,24.40
2018-03-23T01:55:08.228Z,26.55
2018-03-23T01:57:35.713Z,20.42
2018-03-23T02:00:03.184Z,24.60
2018-03-23T02:02:30.750Z,25.70
2018-03-23T02:04:58.230Z,22.75
2018-03-23T02:07:25.718Z,27.30
2018-03-23T02:09:53.278Z,23.70
2018-03-23T02:12:20.988Z,25.62
2018-03-23T02:14:48.464Z,24.40
2018-03-23T02:17:15.930Z,25.35
2018-03-23T02:19:43.420Z,23.55
2018-03-23T02:22:11.665Z,24.50
2018-03-23T02:24:39.125Z,23.48
2018-03-23T02:27:06.648Z,22.60
2018-03-23T02:29:34.108Z,22.92
2018-03-23T02:32:01.592Z,25.83
2018-03-23T02:34:29.056Z,28.80
2018-03-23T02:36:56.629Z,22.37
2018-03-23T02:39:24.908Z,21.75
2018-03-23T02:41:53.184Z,21.33
2018-03-23T02:44:20.639Z,25.12
2018-03-23T02:46:48.115Z,21.15
2018-03-23T02:49:16.362Z,20.98
2018-03-23T02:51:43.926Z,24.30
2018-03-23T02:54:11.409Z,28.92
2018-03-23T02:56:39.665Z,24.58
2018-03-23T02:59:07.220Z,23.10
2018-03-23T03:01:34.689Z,24.48
2018-03-23T03:04:02.929Z,22.30
2018-03-23T03:06:30.511Z,25.73
2018-03-23T03:08:58.094Z,24.92
2018-03-23T03:11:26.314Z,26.48
2018-03-23T03:13:53.800Z,23.45
2018-03-23T03:16:21.262Z,23.92
2018-03-23T03:18:48.749Z,26.12
2018-03-23T03:21:16.204Z,22.90
2018-03-23T03:23:43.757Z,24.02
2018-03-23T03:26:11.242Z,21.45
2018-03-23T03:28:38.753Z,23.52
2018-03-23T03:31:06.229Z,22.87
2018-03-23T03:33:33.697Z,20.48
2018-03-23T03:36:01.172Z,20.20
2018-03-23T03:38:28.640Z,26.80
2018-03-23T03:40:56.146Z,24.27
2018-03-23T03:43:24.384Z,24.08
2018-03-23T03:45:51.868Z,21.87
2018-03-23T03:48:20.167Z,22.92
2018-03-23T03:50:47.655Z,27.05
2018-03-23T03:53:15.168Z,35.25
2018-03-23T03:55:43.433Z,25.90
2018-03-23T03:58:11.672Z,23.73
2018-03-23T04:00:39.141Z,27.37
2018-03-23T04:03:06.795Z,21.83
2018-03-23T04:05:34.374Z,21.55
2018-03-23T04:08:01.941Z,21.17
2018-03-23T04:10:29.413Z,25.73
2018-03-23T04:12:57.666Z,29.90
2018-03-23T04:15:25.161Z,19.87
2018-03-23T04:17:52.627Z,21.98
2018-03-23T04:20:20.120Z,24.15
2018-03-23T04:22:47.577Z,22.95
2018-03-23T04:25:15.036Z,20.65
2018-03-23T04:27:42.616Z,19.05
2018-03-23T04:30:10.105Z,23.87
2018-03-23T04:32:37.568Z,18.55
2018-03-23T04:35:05.032Z,22.15
2018-03-23T04:37:32.505Z,20.75
2018-03-23T04:39:59.999Z,23.08
2018-03-23T04:42:27.478Z,22.90
2018-03-23T04:44:55.715Z,20.12
2018-03-23T04:47:23.339Z,22.35
2018-03-23T04:49:50.794Z,20.77
2018-03-23T04:52:18.265Z,19.52
2018-03-23T04:54:45.721Z,17.75
2018-03-23T04:57:13.176Z,18.95
2018-03-23T04:59:40.724Z,15.13
2018-03-23T05:02:08.185Z,16.40
2018-03-23T05:04:35.696Z,19.05
2018-03-23T05:07:03.251Z,21.77
2018-03-23T05:09:30.856Z,20.17
2018-03-23T05:11:58.409Z,22.05
2018-03-23T05:14:25.894Z,22.27
2018-03-23T05:16:53.489Z,18.52
2018-03-23T05:19:20.989Z,19.08
2018-03-23T05:21:48.462Z,18.92
2018-03-23T05:24:15.954Z,20.92
2018-03-23T05:26:43.504Z,19.12
2018-03-23T05:29:10.976Z,20.30
2018-03-23T05:31:38.537Z,24.75
2018-03-23T05:34:06.004Z,24.23
2018-03-23T05:36:34.248Z,22.62
2018-03-23T05:39:01.725Z,21.95
2018-03-23T05:41:29.972Z,21.37
2018-03-23T05:43:57.451Z,20.50
2018-03-23T05:46:26.059Z,20.10
2018-03-23T05:48:54.317Z,21.23
2018-03-23T05:51:21.864Z,21.65
2018-03-23T05:53:49.354Z,28.23
2018-03-23T05:56:17.694Z,23.85
2018-03-23T05:58:45.217Z,25.23
2018-03-23T06:01:12.704Z,28.10
2018-03-23T06:03:40.201Z,30.60
2018-03-23T06:06:08.433Z,29.48
2018-03-23T06:08:35.932Z,21.62
2018-03-23T06:11:03.578Z,21.67
2018-03-23T06:13:31.065Z,25.83
2018-03-23T06:15:58.589Z,24.42
2018-03-23T06:18:26.843Z,26.48
2018-03-23T06:20:54.300Z,23.48
2018-03-23T06:23:21.979Z,24.87
2018-03-23T06:25:49.449Z,23.25
2018-03-23T06:28:17.692Z,23.80
2018-03-23T06:30:45.162Z,25.88
2018-03-23T06:33:12.625Z,21.60
2018-03-23T06:35:40.098Z,23.35
2018-03-23T06:38:08.385Z,26.12
2018-03-23T06:40:36.620Z,26.73
2018-03-23T06:43:04.094Z,25.15
2018-03-23T06:45:31.592Z,21.87
2018-03-23T06:47:59.054Z,28.62
2018-03-23T06:50:26.525Z,28.90
2018-03-23T06:52:54.009Z,27.05
2018-03-23T06:55:21.481Z,34.38
2018-03-23T06:57:49.770Z,23.05
2018-03-23T07:00:18.013Z,22.60
2018-03-23T07:02:45.493Z,26.60
2018-03-23T07:05:13.742Z,24.37
2018-03-23T07:07:41.217Z,30.25
2018-03-23T07:10:08.684Z,27.98
2018-03-23T07:12:36.982Z,31.80
2018-03-23T07:15:04.465Z,23.83
2018-03-23T07:17:31.948Z,24.20
2018-03-23T07:20:00.218Z,22.45
2018-03-23T07:22:27.810Z,29.05
2018-03-23T07:24:56.036Z,29.42
2018-03-23T07:27:23.561Z,31.25
2018-03-23T07:29:50.990Z,26.02
2018-03-23T07:32:19.262Z,30.33
2018-03-23T07:34:46.729Z,29.40
2018-03-23T07:37:15.052Z,35.22
2018-03-23T07:39:42.524Z,29.42
2018-03-23T07:42:10.009Z,53.67
2018-03-23T07:44:37.477Z,33.25
2018-03-23T07:47:05.734Z,35.15
2018-03-23T07:49:34.700Z,33.33
2018-03-23T07:52:02.184Z,33.42
2018-03-23T07:54:29.736Z,34.78
2018-03-23T07:56:57.350Z,36.15
2018-03-23T07:59:24.809Z,36.65
2018-03-23T08:01:52.286Z,34.60
2018-03-23T08:04:19.740Z,30.23
2018-03-23T08:06:47.219Z,33.00
2018-03-23T08:09:14.676Z,32.83
2018-03-23T08:11:42.180Z,32.53
2018-03-23T08:14:09.670Z,35.17
2018-03-23T08:16:37.153Z,29.83
2018-03-23T08:19:04.713Z,36.80
2018-03-23T08:21:32.217Z,31.15
2018-03-23T08:23:59.674Z,38.17
2018-03-23T08:26:27.295Z,31.08
2018-03-23T08:28:54.849Z,35.70
2018-03-23T08:31:22.306Z,32.35
2018-03-23T08:33:49.899Z,39.35
2018-03-23T08:36:17.366Z,33.63
2018-03-23T08:38:44.893Z,29.95
2018-03-23T08:41:13.121Z,40.38
2018-03-23T08:43:40.593Z,36.63
2018-03-23T08:46:08.055Z,37.38
2018-03-23T08:48:35.527Z,37.05
2018-03-23T08:51:03.142Z,35.40
2018-03-23T08:53:30.653Z,36.40
2018-03-23T08:55:58.930Z,39.97
2018-03-23T08:58:27.185Z,42.72
2018-03-23T09:00:55.509Z,40.22
2018-03-23T09:03:22.973Z,37.00
2018-03-23T09:05:50.485Z,33.95
2018-03-23T09:08:18.041Z,36.45
2018-03-23T09:10:45.524Z,42.47
2018-03-23T09:13:13.756Z,35.60
2018-03-23T09:15:41.333Z,32.15
2018-03-23T09:18:08.893Z,35.28
2018-03-23T09:20:36.397Z,33.40
2018-03-23T09:23:03.848Z,37.22
2018-03-23T09:25:31.326Z,36.33
2018-03-23T09:27:58.784Z,32.88
2018-03-23T09:30:26.254Z,35.50
2018-03-23T09:32:53.732Z,36.63
2018-03-23T09:35:21.300Z,32.10
2018-03-23T09:37:48.808Z,37.72
2018-03-23T09:40:16.313Z,41.58
2018-03-23T09:42:43.884Z,36.80
2018-03-23T09:45:12.116Z,37.78
2018-03-23T09:47:39.581Z,32.83
2018-03-23T09:50:07.051Z,36.53
2018-03-23T09:52:35.282Z,40.80
2018-03-23T09:55:02.796Z,35.22
2018-03-23T09:57:30.271Z,33.67
2018-03-23T09:59:58.496Z,32.25
2018-03-23T10:02:26.081Z,36.60
2018-03-23T10:04:53.536Z,37.95
2018-03-23T10:07:21.021Z,34.38
2018-03-23T10:09:49.264Z,33.95
2018-03-23T10:12:16.823Z,41.28
2018-03-23T10:14:44.276Z,32.42
2018-03-23T10:17:11.748Z,35.65
2018-03-23T10:19:39.215Z,31.90
2018-03-23T10:22:07.471Z,35.40
2018-03-23T10:24:35.028Z,41.90
2018-03-23T10:27:02.602Z,35.83
2018-03-23T10:29:30.075Z,34.00
2018-03-23T10:31:57.557Z,37.80
2018-03-23T10:34:25.036Z,34.10
2018-03-23T10:36:52.525Z,40.80
2018-03-23T10:39:20.089Z,36.03
2018-03-23T10:41:47.561Z,35.97
2018-03-23T10:44:15.802Z,36.85
2018-03-23T10:46:43.314Z,36.50
2018-03-23T10:49:10.801Z,36.70
2018-03-23T10:51:38.256Z,39.20
2018-03-23T10:54:05.750Z,32.55
2018-03-23T10:56:33.237Z,34.63
2018-03-23T10:59:00.713Z,38.30
2018-03-23T11:01:32.773Z,44.03
2018-03-23T11:04:00.281Z,42.03
2018-03-23T11:06:27.830Z,41.75
2018-03-23T11:08:55.393Z,39.47
2018-03-23T11:11:22.857Z,42.70
2018-03-23T11:13:50.409Z,35.25
2018-03-23T11:16:17.893Z,44.80
2018-03-23T11:18:47.096Z,35.30
2018-03-23T11:21:14.572Z,40.00
2018-03-23T11:23:42.029Z,36.80
2018-03-23T11:26:09.635Z,34.47
2018-03-23T11:28:37.101Z,38.47
2018-03-23T11:31:05.374Z,42.78
2018-03-23T11:33:32.831Z,37.33
2018-03-23T11:36:01.061Z,41.40
2018-03-23T11:38:28.530Z,37.38
2018-03-23T11:40:55.980Z,38.97
2018-03-23T11:43:23.455Z,35.75
2018-03-23T11:45:50.954Z,38.03
2018-03-23T11:48:19.192Z,36.13
2018-03-23T11:50:46.762Z,36.78
2018-03-23T11:53:14.217Z,39.50
2018-03-23T11:55:41.788Z,40.35
2018-03-23T11:58:10.052Z,38.58
2018-03-23T12:00:37.513Z,37.42
2018-03-23T12:03:04.977Z,32.67
2018-03-23T12:05:33.226Z,37.88
2018-03-23T12:08:00.694Z,37.42
2018-03-23T12:10:29.625Z,32.22
2018-03-23T12:12:57.102Z,33.55
2018-03-23T12:15:24.569Z,34.45
2018-03-23T12:17:52.022Z,39.60
2018-03-23T12:20:19.517Z,33.33
2018-03-23T12:22:47.092Z,32.05
2018-03-23T12:25:15.402Z,35.67
2018-03-23T12:27:42.866Z,36.55
2018-03-23T12:30:10.369Z,38.35
2018-03-23T12:32:37.831Z,42.65
2018-03-23T12:35:05.392Z,39.72
2018-03-23T12:37:33.624Z,35.75
2018-03-23T12:40:01.083Z,36.15
2018-03-23T12:42:28.570Z,33.42
2018-03-23T12:44:56.849Z,33.15
2018-03-23T12:47:25.096Z,37.75
2018-03-23T12:49:52.580Z,36.22
2018-03-23T12:52:20.052Z,34.63
2018-03-23T12:54:48.317Z,31.48
2018-03-23T12:57:16.636Z,30.33
2018-03-23T12:59:44.088Z,36.50
2018-03-23T13:02:11.556Z,39.25
2018-03-23T13:04:39.026Z,42.30
2018-03-23T13:07:06.515Z,37.45
2018-03-23T13:09:33.978Z,30.08
2018-03-23T13:12:02.206Z,40.65
2018-03-23T13:14:29.686Z,37.28
2018-03-23T13:16:57.159Z,38.28
2018-03-23T13:19:24.645Z,30.37
2018-03-23T13:21:52.105Z,32.90
2018-03-23T13:24:19.590Z,36.38
2018-03-23T13:26:47.053Z,39.05
2018-03-23T13:29:14.556Z,33.58
2018-03-23T13:31:42.911Z,32.33
2018-03-23T13:34:10.460Z,34.25
2018-03-23T13:36:37.928Z,32.15
2018-03-23T13:39:05.409Z,36.70
2018-03-23T13:41:33.645Z,37.45
2018-03-23T13:44:01.112Z,32.63
2018-03-23T13:46:28.788Z,37.75
2018-03-23T13:48:56.253Z,33.50
2018-03-23T13:51:24.493Z,33.20
2018-03-23T13:53:51.980Z,28.25
2018-03-23T13:56:19.544Z,35.97
2018-03-23T13:58:53.600Z,33.97
2018-03-23T14:01:26.858Z,30.50
2018-03-23T14:03:55.102Z,36.88
2018-03-23T14:06:22.586Z,30.95
2018-03-23T14:08:50.824Z,27.87
2018-03-23T14:11:18.303Z,31.20
2018-03-23T14:13:46.130Z,24.20
2018-03-23T14:16:13.605Z,34.83
2018-03-23T14:18:41.087Z,31.25
2018-03-23T14:21:08.549Z,31.23
2018-03-23T14:23:36.799Z,31.37
2018-03-23T14:26:04.278Z,26.83
2018-03-23T14:28:32.537Z,32.20
2018-03-23T14:31:00.025Z,34.83
2018-03-23T14:33:28.268Z,29.05
2018-03-23T14:35:55.745Z,35.67
2018-03-23T14:38:23.206Z,33.15
2018-03-23T14:40:51.486Z,26.70
2018-03-23T14:43:19.728Z,24.35
2018-03-23T14:45:47.317Z,29.70
2018-03-23T14:48:15.544Z,33.67
2018-03-23T14:50:43.021Z,28.83
2018-03-23T14:53:10.587Z,29.98
2018-03-23T14:55:38.058Z,28.10
2018-03-23T14:58:05.515Z,29.85
2018-03-23T15:00:33.756Z,29.17
2018-03-23T15:03:01.226Z,28.83
2018-03-23T15:05:28.799Z,28.92
2018-03-23T15:07:56.355Z,32.58
2018-03-23T15:10:23.829Z,30.55
2018-03-23T15:12:52.056Z,32.28
2018-03-23T15:15:19.538Z,26.45
2018-03-23T15:17:47.063Z,31.00
2018-03-23T15:20:14.610Z,34.63
2018-03-23T15:22:42.081Z,33.28
2018-03-23T15:25:09.540Z,27.48
2018-03-23T15:27:37.016Z,30.62
2018-03-23T15:30:04.480Z,28.00
2018-03-23T15:32:31.957Z,28.70
2018-03-23T15:35:00.212Z,28.55
2018-03-23T15:37:27.693Z,33.17
2018-03-23T15:39:55.938Z,32.35
2018-03-23T15:42:23.508Z,28.60
2018-03-23T15:44:51.002Z,26.00
2018-03-23T15:47:19.220Z,36.72
2018-03-23T15:49:46.699Z,31.37
2018-03-23T15:52:14.182Z,35.33
2018-03-23T15:54:42.409Z,39.17
2018-03-23T15:57:09.908Z,35.55
2018-03-23T15:59:38.156Z,32.75
2018-03-23T16:02:05.694Z,34.13
2018-03-23T16:04:33.946Z,28.00
2018-03-23T16:07:01.461Z,35.92
2018-03-23T16:09:28.952Z,35.13
2018-03-23T16:11:56.409Z,31.67
2018-03-23T16:14:23.880Z,29.95
2018-03-23T16:16:51.349Z,30.92
2018-03-23T16:19:18.816Z,32.35
2018-03-23T16:21:46.273Z,29.65
2018-03-23T16:24:13.849Z,31.67
2018-03-23T16:26:41.404Z,29.63
2018-03-23T16:29:08.968Z,29.48
2018-03-23T16:31:36.443Z,28.87
2018-03-23T16:34:04.083Z,28.05
2018-03-23T16:36:31.563Z,32.15
2018-03-23T16:38:59.809Z,28.58
2018-03-23T16:41:27.273Z,29.42
2018-03-23T16:43:54.846Z,33.70
2018-03-23T16:46:22.388Z,36.88
2018-03-23T16:48:49.877Z,29.35
2018-03-23T16:51:18.121Z,30.20
2018-03-23T16:53:45.581Z,28.73
2018-03-23T16:56:13.872Z,28.80
2018-03-23T16:58:41.341Z,36.15
2018-03-23T17:01:09.581Z,28.45
2018-03-23T17:03:37.100Z,29.95
2018-03-23T17:06:04.571Z,25.15
2018-03-23T17:08:32.045Z,34.00
2018-03-23T17:10:59.593Z,31.45
2018-03-23T17:13:27.116Z,33.53
2018-03-23T17:15:54.589Z,32.92
2018-03-23T17:18:22.140Z,34.00
2018-03-23T17:20:49.671Z,36.33
2018-03-23T17:23:17.906Z,33.95
2018-03-23T17:25:45.408Z,28.98
2018-03-23T17:28:13.680Z,33.22
2018-03-23T17:30:41.939Z,33.13
2018-03-23T17:33:09.443Z,33.97
2018-03-23T17:35:36.900Z,37.15
2018-03-23T17:38:04.392Z,35.47
2018-03-23T17:40:31.840Z,31.17
2018-03-23T17:42:59.317Z,34.47
2018-03-23T17:45:26.876Z,38.60
2018-03-23T17:47:54.356Z,39.13
2018-03-23T17:50:22.683Z,35.15
2018-03-23T17:52:50.168Z,40.83
2018-03-23T17:55:17.826Z,39.88
2018-03-23T17:57:45.392Z,33.08
2018-03-23T18:00:12.865Z,42.15
2018-03-23T18:02:41.094Z,36.85
2018-03-23T18:05:08.585Z,36.55
2018-03-23T18:07:36.041Z,38.28
2018-03-23T18:10:03.641Z,39.50
2018-03-23T18:12:31.145Z,38.33
2018-03-23T18:14:58.765Z,39.28
2018-03-23T18:17:26.225Z,40.72
2018-03-23T18:19:53.728Z,40.50
2018-03-23T18:22:21.313Z,40.55
2018-03-23T18:24:49.541Z,40.40
2018-03-23T18:27:17.024Z,38.90
2018-03-23T18:29:44.476Z,36.33
2018-03-23T18:32:11.948Z,34.83
2018-03-23T18:34:40.233Z,36.08
2018-03-23T18:37:08.466Z,40.90
2018-03-23T18:39:36.037Z,42.62
2018-03-23T18:42:03.606Z,48.42
2018-03-23T18:44:31.099Z,40.40
2018-03-23T18:46:58.648Z,43.95
2018-03-23T18:49:26.216Z,41.75
2018-03-23T18:51:54.449Z,47.22
2018-03-23T18:54:23.450Z,46.72
2018-03-23T18:56:50.921Z,45.40
2018-03-23T18:59:19.157Z,48.85
2018-03-23T19:01:46.657Z,47.08
2018-03-23T19:04:14.900Z,43.10
2018-03-23T19:06:42.361Z,54.45
2018-03-23T19:09:09.874Z,44.67
2018-03-23T19:11:37.376Z,40.20
2018-03-23T19:14:04.937Z,42.17
2018-03-23T19:16:32.429Z,43.53
2018-03-23T19:18:59.950Z,44.55
2018-03-23T19:21:27.414Z,40.05
2018-03-23T19:23:54.883Z,44.55
2018-03-23T19:26:23.114Z,44.63
2018-03-23T19:28:50.614Z,48.92
2018-03-23T19:31:18.856Z,39.75
2018-03-23T19:33:46.332Z,36.83
2018-03-23T19:36:13.894Z,37.55
2018-03-23T19:38:41.397Z,45.42
2018-03-23T19:41:08.916Z,35.45
2018-03-23T19:43:37.162Z,38.05
2018-03-23T19:46:04.630Z,38.58
2018-03-23T19:48:32.120Z,36.90
2018-03-23T19:51:00.366Z,37.47
2018-03-23T19:53:28.628Z,36.42
2018-03-23T19:55:56.105Z,38.58
2018-03-23T19:58:23.569Z,35.13
2018-03-23T20:00:51.045Z,39.17
2018-03-23T20:03:18.552Z,40.50
2018-03-23T20:05:46.037Z,39.38
2018-03-23T20:08:13.538Z,37.00
2018-03-23T20:10:41.031Z,32.75
2018-03-23T20:13:08.506Z,34.08
2018-03-23T20:15:35.977Z,37.92
2018-03-23T20:18:09.915Z,35.05
2018-03-23T20:20:42.952Z,40.92
2018-03-23T20:23:10.509Z,38.05
2018-03-23T20:25:38.077Z,38.88
2018-03-23T20:28:11.348Z,33.55
2018-03-23T20:30:38.933Z,34.17
2018-03-23T20:33:06.489Z,38.50
2018-03-23T20:35:34.044Z,41.10
2018-03-23T20:38:01.615Z,41.35
2018-03-23T20:40:29.873Z,44.58
2018-03-23T20:42:57.359Z,44.15
2018-03-23T20:45:24.829Z,36.90
2018-03-23T20:47:52.330Z,39.10
2018-03-23T20:50:19.784Z,40.75
2018-03-23T20:52:47.372Z,46.50
2018-03-23T20:55:14.929Z,41.72
2018-03-23T20:57:42.580Z,40.85
2018-03-23T21:00:10.039Z,38.45
2018-03-23T21:02:37.510Z,41.08
2018-03-23T21:05:05.163Z,42.55
2018-03-23T21:07:32.657Z,43.42
2018-03-23T21:10:00.144Z,40.17
2018-03-23T21:12:27.638Z,47.85
2018-03-23T21:14:56.784Z,46.60
2018-03-23T21:17:24.278Z,41.67
2018-03-23T21:19:51.772Z,42.10
2018-03-23T21:22:19.241Z,45.12
2018-03-23T21:24:46.755Z,45.42
2018-03-23T21:27:14.238Z,47.70
2018-03-23T21:29:41.733Z,48.08
2018-03-23T21:32:09.209Z,40.63
2018-03-23T21:34:36.682Z,50.47
2018-03-23T21:37:04.145Z,46.22
2018-03-23T21:39:31.628Z,45.25
2018-03-23T21:41:59.254Z,44.58
2018-03-23T21:44:26.721Z,49.55
2018-03-23T21:46:54.227Z,50.67
2018-03-23T21:49:22.432Z,54.03
2018-03-23T21:51:49.917Z,54.83
2018-03-23T21:54:18.186Z,52.55
2018-03-23T21:56:45.650Z,45.12
2018-03-23T21:59:13.896Z,45.40
2018-03-23T22:01:41.366Z,49.78
2018-03-23T22:04:08.921Z,48.20
2018-03-23T22:06:36.393Z,45.85
2018-03-23T22:09:04.652Z,48.28
2018-03-23T22:11:32.269Z,54.72
2018-03-23T22:13:59.770Z,48.92
2018-03-23T22:16:27.236Z,47.80
2018-03-23T22:18:54.693Z,49.95
2018-03-23T22:21:22.159Z,55.83
2018-03-23T22:23:50.416Z,50.65
2018-03-23T22:26:17.887Z,44.88
2018-03-23T22:28:46.113Z,40.83
2018-03-23T22:31:13.597Z,49.88
2018-03-23T22:33:41.059Z,46.05
2018-03-23T22:36:08.617Z,44.17
2018-03-23T22:38:36.184Z,45.40
2018-03-23T22:41:03.647Z,44.13
2018-03-23T22:43:31.903Z,44.88
2018-03-23T22:45:59.358Z,42.65
2018-03-23T22:48:26.828Z,48.63
2018-03-23T22:50:54.295Z,42.30
2018-03-23T22:53:21.774Z,42.58
2018-03-23T22:55:49.293Z,39.17
2018-03-23T22:58:16.802Z,46.58
2018-03-23T23:00:44.277Z,43.80
2018-03-23T23:03:11.782Z,43.53
2018-03-23T23:05:40.053Z,47.10
2018-03-23T23:08:07.517Z,43.17
2018-03-23T23:10:35.004Z,56.03
2018-03-23T23:13:02.508Z,42.17
2018-03-23T23:15:29.992Z,44.38
2018-03-23T23:17:58.344Z,43.87
2018-03-23T23:20:25.840Z,44.88
2018-03-23T23:22:54.067Z,44.90
2018-03-23T23:25:21.542Z,47.15
2018-03-23T23:27:49.001Z,45.83
2018-03-23T23:30:16.542Z,40.10
2018-03-23T23:32:44.013Z,42.47
2018-03-23T23:35:11.493Z,43.85
2018-03-23T23:37:39.800Z,39.90
2018-03-23T23:40:07.310Z,39.00
2018-03-23T23:42:34.765Z,39.60
2018-03-23T23:45:02.667Z,41.08
2018-03-23T23:47:30.185Z,37.95
2018-03-23T23:49:57.652Z,40.90
2018-03-23T23:52:25.120Z,40.95
2018-03-23T23:54:53.364Z,38.03
2018-03-23T23:57:20.832Z,42.17
2018-03-23T23:59:48.293Z,43.72
